Time;durP1;ratioP1;P1;durP2;ratioP2;P2;SDS_P1;SDS_P2;PMS_P1;PMS_P2;Temp;Humidity;BMP_temperature;BMP_pressure;BME280_temperature;BME280_humidity;BME280_pressure;Samples;Min_cycle;Max_cycle;Signal;HPM_P1;HPM_P2
2021/09/06 00:02:07;;;;;;;2.15;0.77;;;12.10;75.70;;;;;;5065904;28;20014;-71
2021/09/06 00:04:33;;;;;;;;;;;12.00;75.80;;;;;;5064962;28;20024;-72
2021/09/06 00:06:59;;;;;;;3.28;0.82;;;12.10;76.10;;;;;;5065620;28;19908;-72
2021/09/06 00:09:25;;;;;;;;;;;12.00;75.60;;;;;;5066096;28;20036;-71
2021/09/06 00:11:50;;;;;;;2.85;0.80;;;12.00;76.00;;;;;;5069345;28;19904;-71
2021/09/06 00:14:16;;;;;;;;;;;12.00;76.50;;;;;;5068657;28;20397;-71
2021/09/06 00:16:42;;;;;;;2.40;0.80;;;12.00;76.60;;;;;;5069107;28;19908;-71
2021/09/06 00:19:07;;;;;;;;;;;11.90;76.70;;;;;;5069613;28;20032;-71
2021/09/06 00:21:33;;;;;;;3.30;0.70;;;11.90;76.70;;;;;;5069361;28;19915;-71
2021/09/06 00:23:58;;;;;;;;;;;11.80;76.90;;;;;;5068203;28;20090;-72
2021/09/06 00:26:24;;;;;;;6.82;1.33;;;11.70;77.40;;;;;;5069131;28;19908;-71
2021/09/06 00:28:50;;;;;;;;;;;11.70;77.70;;;;;;5068005;28;20059;-72
2021/09/06 00:31:15;;;;;;;2.08;1.00;;;11.60;78.10;;;;;;5068960;28;19953;-72
2021/09/06 00:33:42;;;;;;;;;;;11.60;79.00;;;;;;5069452;28;20033;-71
2021/09/06 00:36:07;;;;;;;1.70;0.73;;;11.60;78.40;;;;;;5069060;28;19908;-71
2021/09/06 00:38:33;;;;;;;;;;;11.50;78.10;;;;;;5069464;28;20035;-70
2021/09/06 00:40:59;;;;;;;1.50;0.70;;;11.50;78.20;;;;;;5068832;28;19908;-71
2021/09/06 00:43:24;;;;;;;2.83;0.90;;;11.60;78.40;;;;;;5068341;28;20028;-71
2021/09/06 00:45:50;;;;;;;;;;;11.60;78.40;;;;;;5069292;28;20420;-71
2021/09/06 00:48:19;;;;;;;1.70;0.70;;;11.60;78.10;;;;;;5068497;28;19908;-70
2021/09/06 00:50:48;;;;;;;1.83;0.80;;;11.60;78.10;;;;;;5068927;28;20036;-71
2021/09/06 00:53:15;;;;;;;4.35;0.90;;;11.60;78.10;;;;;;5068558;28;20020;-72
2021/09/06 00:55:41;;;;;;;3.17;0.90;;;11.70;78.10;;;;;;5068772;28;20141;-71
2021/09/06 00:58:06;;;;;;;;;;;11.70;77.90;;;;;;5067371;28;20507;-72
2021/09/06 01:00:32;;;;;;;1.70;0.70;;;11.80;77.60;;;;;;5068431;28;19915;-72
2021/09/06 01:02:58;;;;;;;;;;;11.70;77.30;;;;;;5068932;28;20110;-72
2021/09/06 01:05:23;;;;;;;4.53;0.90;;;11.80;77.40;;;;;;5067235;28;19913;-69
2021/09/06 01:07:49;;;;;;;;;;;11.80;77.50;;;;;;5067662;28;20086;-70
2021/09/06 01:10:15;;;;;;;3.58;0.60;;;11.80;77.70;;;;;;5068502;28;20388;-72
2021/09/06 01:12:41;;;;;;;;;;;11.80;77.50;;;;;;5068272;28;20024;-70
2021/09/06 01:15:09;;;;;;;1.90;0.90;;;11.80;77.50;;;;;;5067154;28;19908;-70
2021/09/06 01:17:34;;;;;;;2.55;0.95;;;11.80;77.70;;;;;;5068215;28;20489;-71
2021/09/06 01:20:00;;;;;;;;;;;11.70;78.30;;;;;;5068422;28;20025;-72
2021/09/06 01:22:26;;;;;;;3.78;0.88;;;11.70;78.60;;;;;;5067536;28;20350;-71
2021/09/06 01:24:52;;;;;;;2.78;1.00;;;11.70;78.80;;;;;;5066778;28;20128;-71
2021/09/06 01:27:18;;;;;;;;;;;11.60;78.70;;;;;;5066564;28;20032;-72
2021/09/06 01:29:44;;;;;;;2.67;0.90;;;11.60;78.90;;;;;;5068131;28;19966;-72
2021/09/06 01:32:10;;;;;;;2.33;0.75;;;11.60;78.60;;;;;;5068068;28;20028;-71
2021/09/06 01:34:36;;;;;;;;;;;11.70;78.50;;;;;;5068088;28;20032;-71
2021/09/06 01:37:02;;;;;;;1.70;0.65;;;11.60;78.80;;;;;;5068045;28;19931;-72
2021/09/06 01:39:28;;;;;;;3.33;0.73;;;11.60;78.90;;;;;;5066297;28;20029;-71
2021/09/06 01:41:54;;;;;;;;;;;11.60;78.90;;;;;;5066733;28;20028;-72
2021/09/06 01:44:20;;;;;;;3.03;0.80;;;11.60;79.10;;;;;;5067602;28;19981;-71
2021/09/06 01:46:46;;;;;;;1.70;0.90;;;11.60;79.20;;;;;;5067827;28;20501;-70
2021/09/06 01:49:12;;;;;;;;;;;11.60;79.10;;;;;;5066993;28;20059;-71
2021/09/06 01:51:37;;;;;;;2.58;0.60;;;11.60;79.20;;;;;;5067389;28;19999;-72
2021/09/06 01:54:03;;;;;;;;;;;11.60;79.60;;;;;;5066766;28;20080;-71
2021/09/06 01:56:29;;;;;;;4.78;1.10;;;11.50;79.60;;;;;;5066951;28;20264;-72
2021/09/06 01:58:54;;;;;;;;;;;11.50;79.70;;;;;;5067417;28;20533;-70
2021/09/06 02:01:20;;;;;;;5.05;0.90;;;11.50;79.90;;;;;;5067293;28;19947;-70
2021/09/06 02:03:46;;;;;;;;;;;11.50;80.20;;;;;;5068046;28;20071;-70
2021/09/06 02:06:12;;;;;;;2.63;0.77;;;11.60;80.00;;;;;;5067289;28;19951;-70
2021/09/06 02:08:37;;;;;;;4.80;0.80;;;11.60;79.90;;;;;;5067245;28;20036;-72
2021/09/06 02:11:03;;;;;;;;;;;11.50;79.60;;;;;;5065886;28;20033;-70
2021/09/06 02:13:29;;;;;;;3.13;0.70;;;11.60;79.90;;;;;;5067209;28;19909;-70
2021/09/06 02:15:55;;;;;;;3.25;0.75;;;11.60;80.10;;;;;;5066952;28;20064;-71
2021/09/06 02:18:21;;;;;;;;;;;11.50;80.10;;;;;;5067408;28;20574;-71
2021/09/06 02:20:47;;;;;;;4.35;0.70;;;11.50;80.30;;;;;;5066973;28;19912;-72
2021/09/06 02:23:12;;;;;;;;;;;11.40;80.50;;;;;;5066904;28;20094;-71
2021/09/06 02:25:38;;;;;;;1.45;0.60;;;11.40;80.90;;;;;;5066761;28;19908;-72
2021/09/06 02:28:04;;;;;;;;;;;11.40;81.00;;;;;;5067474;28;20037;-72
2021/09/06 02:30:29;;;;;;;6.22;0.80;;;11.30;81.10;;;;;;5066797;28;20369;-72
2021/09/06 02:32:56;;;;;;;2.88;0.90;;;11.40;81.20;;;;;;5066270;28;20040;-71
2021/09/06 02:35:21;;;;;;;2.25;0.75;;;11.30;81.50;;;;;;5066366;28;20104;-71
2021/09/06 02:37:47;;;;;;;;;;;11.30;81.90;;;;;;5067356;28;20107;-71
2021/09/06 02:40:15;;;;;;;2.42;0.85;;;11.30;81.70;;;;;;5066393;28;19908;-71
2021/09/06 02:42:40;;;;;;;2.83;0.80;;;11.20;82.00;;;;;;5066840;28;20443;-71
2021/09/06 02:45:06;;;;;;;;;;;11.20;82.20;;;;;;5067098;28;20028;-72
2021/09/06 02:47:32;;;;;;;3.90;0.88;;;11.10;82.10;;;;;;5066560;28;20292;-71
2021/09/06 02:49:58;;;;;;;;;;;11.10;81.50;;;;;;5067050;28;20086;-73
2021/09/06 02:52:24;;;;;;;1.52;0.65;;;11.10;81.30;;;;;;5066204;28;19919;-71
2021/09/06 02:54:50;;;;;;;3.35;1.13;;;11.00;81.60;;;;;;5066292;28;20119;-72
2021/09/06 02:57:16;;;;;;;;;;;11.00;80.30;;;;;;5066470;28;20040;-72
2021/09/06 02:59:42;;;;;;;6.47;2.55;;;10.90;80.10;;;;;;5066719;28;20277;-72
2021/09/06 03:02:07;;;;;;;;;;;10.90;79.80;;;;;;5066872;28;20027;-71
2021/09/06 03:04:33;;;;;;;1.85;0.80;;;10.90;80.30;;;;;;5066153;28;19909;-72
2021/09/06 03:06:59;;;;;;;;;;;10.90;80.40;;;;;;5066883;28;20102;-72
2021/09/06 03:09:25;;;;;;;2.80;1.13;;;10.90;81.00;;;;;;5066196;28;19904;-72
2021/09/06 03:11:50;;;;;;;2.10;1.00;;;10.90;79.70;;;;;;5066029;28;20029;-72
2021/09/06 03:14:16;;;;;;;;;;;10.90;79.10;;;;;;5065601;28;20044;-71
2021/09/06 03:16:41;;;;;;;1.95;1.10;;;10.80;79.20;;;;;;5066360;28;19908;-71
2021/09/06 03:19:07;;;;;;;;;;;10.90;79.50;;;;;;5065153;28;20016;-70
2021/09/06 03:21:33;;;;;;;2.72;0.90;;;10.90;80.00;;;;;;5066074;28;20391;-71
2021/09/06 03:23:58;;;;;;;3.35;0.77;;;10.80;79.90;;;;;;5066462;28;20074;-71
2021/09/06 03:26:24;;;;;;;3.25;1.00;;;10.80;79.70;;;;;;5065377;28;20111;-71
2021/09/06 03:28:50;;;;;;;4.90;1.15;;;10.70;80.00;;;;;;5066341;28;20199;-71
2021/09/06 03:31:15;;;;;;;;;;;10.70;79.10;;;;;;5066516;28;20025;-72
2021/09/06 03:33:41;;;;;;;3.80;1.70;;;10.70;79.60;;;;;;5065797;28;19908;-71
2021/09/06 03:36:07;;;;;;;3.03;0.90;;;10.70;80.30;;;;;;5066221;28;20060;-71
2021/09/06 03:38:33;;;;;;;;;;;10.60;80.70;;;;;;5066420;28;20032;-72
2021/09/06 03:40:59;;;;;;;2.50;1.00;;;10.70;79.90;;;;;;5065687;28;19908;-71
2021/09/06 03:43:24;;;;;;;;;;;10.60;79.50;;;;;;5066453;28;20037;-70
2021/09/06 03:45:50;;;;;;;1.88;0.95;;;10.70;79.70;;;;;;5068157;28;19943;-70
2021/09/06 03:48:15;;;;;;;;;;;10.70;79.30;;;;;;5070237;28;20040;-71
2021/09/06 03:50:41;;;;;;;2.60;1.05;;;10.70;78.50;;;;;;5070016;28;19995;-70
2021/09/06 03:53:07;;;;;;;3.05;1.05;;;10.70;78.40;;;;;;5068182;28;20530;-71
2021/09/06 03:55:32;;;;;;;;;;;10.70;78.80;;;;;;5067980;28;20048;-71
2021/09/06 03:57:58;;;;;;;2.75;0.90;;;10.80;78.30;;;;;;5069291;28;20437;-71
2021/09/06 04:00:23;;;;;;;;;;;10.80;78.30;;;;;;5068558;28;20116;-72
2021/09/06 04:02:49;;;;;;;2.80;1.17;;;10.80;77.80;;;;;;5069517;28;19996;-70
2021/09/06 04:05:15;;;;;;;;;;;10.90;77.70;;;;;;5069945;28;20484;-71
2021/09/06 04:07:41;;;;;;;2.40;1.10;;;10.90;77.40;;;;;;5069195;28;19913;-71
2021/09/06 04:10:07;;;;;;;;;;;10.90;77.40;;;;;;5068235;28;20543;-72
2021/09/06 04:12:32;;;;;;;2.20;0.90;;;10.90;77.50;;;;;;5068312;28;19908;-71
2021/09/06 04:14:58;;;;;;;;;;;10.90;77.50;;;;;;5069582;28;20033;-71
2021/09/06 04:17:24;;;;;;;5.45;0.90;;;10.90;77.70;;;;;;5069346;28;20006;-71
2021/09/06 04:19:49;;;;;;;;;;;11.00;77.70;;;;;;5069548;28;20017;-70
2021/09/06 04:22:15;;;;;;;3.92;1.13;;;11.00;77.80;;;;;;5069390;28;19955;-72
2021/09/06 04:24:40;;;;;;;;;;;11.00;77.80;;;;;;5069369;28;20028;-72
2021/09/06 04:27:06;;;;;;;4.70;0.93;;;11.00;77.80;;;;;;5069124;28;19962;-72
2021/09/06 04:29:31;;;;;;;;;;;11.00;77.30;;;;;;5069434;28;20062;-72
2021/09/06 04:31:57;;;;;;;4.75;1.30;;;11.00;77.70;;;;;;5069351;28;19915;-72
2021/09/06 04:34:23;;;;;;;2.70;1.15;;;11.10;77.80;;;;;;5067869;28;20085;-72
2021/09/06 04:36:48;;;;;;;;;;;11.10;77.50;;;;;;5069364;28;20024;-72
2021/09/06 04:39:14;;;;;;;1.88;0.77;;;11.10;77.80;;;;;;5067253;28;20012;-72
2021/09/06 04:41:39;;;;;;;;;;;11.10;77.90;;;;;;5067828;28;20025;-72
2021/09/06 04:44:05;;;;;;;4.38;1.30;;;11.10;77.90;;;;;;5068936;28;19946;-72
2021/09/06 04:46:31;;;;;;;5.25;1.10;;;11.20;77.70;;;;;;5069244;28;20085;-71
2021/09/06 04:48:56;;;;;;;;;;;11.30;77.30;;;;;;5069551;28;20025;-72
2021/09/06 04:51:22;;;;;;;4.07;1.17;;;11.40;77.20;;;;;;5068464;28;20647;-73
2021/09/06 04:53:47;;;;;;;;;;;11.60;75.90;;;;;;5067528;28;20564;-73
2021/09/06 04:56:14;;;;;;;3.28;1.20;;;11.90;76.00;;;;;;5068080;28;19924;-71
2021/09/06 04:58:40;;;;;;;4.18;1.15;;;12.10;75.30;;;;;;5068021;28;20028;-71
2021/09/06 05:01:06;;;;;;;3.50;1.38;;;12.10;76.10;;;;;;5068790;28;20036;-72
2021/09/06 05:03:32;;;;;;;;;;;12.10;76.20;;;;;;5068681;28;20028;-71
2021/09/06 05:05:59;;;;;;;3.40;1.35;;;12.20;75.40;;;;;;5068498;28;19916;-72
2021/09/06 05:08:26;;;;;;;7.88;1.50;;;12.30;75.10;;;;;;5068540;28;20044;-73
2021/09/06 05:10:52;;;;;;;2.42;1.45;;;12.40;75.40;;;;;;5067912;28;20537;-72
2021/09/06 05:13:18;;;;;;;2.17;1.00;;;12.50;76.30;;;;;;5068316;28;20020;-71
2021/09/06 05:15:43;;;;;;;;;;;12.60;76.10;;;;;;5068631;28;20052;-72
2021/09/06 05:18:10;;;;;;;8.07;1.85;;;13.10;75.30;;;;;;5068097;28;19912;-73
2021/09/06 05:20:37;;;;;;;2.83;0.93;;;13.80;73.70;;;;;;5068045;28;20544;-73
2021/09/06 05:23:03;;;;;;;4.95;1.20;;;14.60;71.70;;;;;;5068051;28;20040;-72
2021/09/06 05:25:28;;;;;;;;;;;15.20;69.30;;;;;;5068081;28;20024;-73
2021/09/06 05:27:54;;;;;;;2.53;1.05;;;15.80;66.10;;;;;;5066533;28;19935;-73
2021/09/06 05:30:20;;;;;;;3.42;1.15;;;16.30;65.60;;;;;;5067757;28;20036;-73
2021/09/06 05:32:45;;;;;;;4.95;1.40;;;16.70;64.60;;;;;;5067980;28;20078;-74
2021/09/06 05:35:11;;;;;;;2.55;1.17;;;17.00;63.00;;;;;;5067536;28;20044;-73
2021/09/06 05:37:37;;;;;;;2.25;1.20;;;17.30;62.70;;;;;;5066488;28;20029;-73
2021/09/06 05:40:04;;;;;;;3.25;1.13;;;17.60;61.90;;;;;;5067287;28;20547;-72
2021/09/06 05:42:30;;;;;;;4.55;1.17;;;17.80;60.40;;;;;;5067724;28;20114;-71
2021/09/06 05:44:55;;;;;;;5.95;2.25;;;17.90;60.80;;;;;;5067527;28;20379;-71
2021/09/06 05:47:21;;;;;;;1.80;0.80;;;18.30;59.00;;;;;;5067683;28;20051;-71
2021/09/06 05:49:47;;;;;;;2.97;1.23;;;18.50;55.60;;;;;;5067259;28;20032;-72
2021/09/06 05:52:13;;;;;;;3.60;1.15;;;18.50;55.70;;;;;;5067543;28;20039;-71
2021/09/06 05:54:38;;;;;;;4.68;1.15;;;18.50;55.50;;;;;;5067279;28;20040;-71
2021/09/06 05:57:04;;;;;;;3.72;1.00;;;18.60;56.10;;;;;;5065911;28;20043;-72
2021/09/06 05:59:30;;;;;;;3.78;0.90;;;18.80;54.70;;;;;;5066025;28;20575;-71
2021/09/06 06:01:56;;;;;;;3.00;1.05;;;19.00;53.80;;;;;;5067515;28;20040;-71
2021/09/06 06:04:21;;;;;;;5.57;1.10;;;19.20;52.90;;;;;;5066189;28;20032;-72
2021/09/06 06:06:47;;;;;;;1.77;0.88;;;19.40;52.80;;;;;;5065222;28;20529;-70
2021/09/06 06:09:13;;;;;;;4.70;1.80;;;19.60;51.90;;;;;;5066234;28;20401;-70
2021/09/06 06:11:40;;;;;;;2.40;0.90;;;20.00;51.60;;;;;;5064845;28;20025;-72
2021/09/06 06:14:07;;;;;;;3.55;0.90;;;20.40;50.30;;;;;;5065829;28;20024;-71
2021/09/06 06:16:33;;;;;;;1.77;1.08;;;20.80;49.70;;;;;;5065886;28;20032;-71
2021/09/06 06:18:59;;;;;;;2.97;1.17;;;21.30;48.70;;;;;;5064670;28;20390;-71
2021/09/06 06:21:24;;;;;;;3.78;1.15;;;21.60;48.60;;;;;;5065703;28;20471;-71
2021/09/06 06:23:50;;;;;;;3.75;1.20;;;22.20;46.90;;;;;;5066039;28;20085;-71
2021/09/06 06:26:16;;;;;;;1.85;1.35;;;22.60;46.20;;;;;;5064299;28;20028;-72
2021/09/06 06:28:42;;;;;;;2.55;1.35;;;22.80;46.30;;;;;;5064813;28;20031;-72
2021/09/06 06:31:07;;;;;;;4.25;1.20;;;23.00;44.80;;;;;;5064582;28;20454;-72
2021/09/06 06:33:33;;;;;;;4.93;1.20;;;23.30;44.00;;;;;;5064708;28;20792;-71
2021/09/06 06:36:01;;;;;;;3.72;1.15;;;23.50;43.00;;;;;;5065930;28;20025;-71
2021/09/06 06:38:28;;;;;;;6.25;1.50;;;23.90;41.90;;;;;;5065574;28;20055;-73
2021/09/06 06:40:53;;;;;;;3.08;1.13;;;24.40;39.60;;;;;;5065631;28;20105;-71
2021/09/06 06:43:19;;;;;;;9.43;1.45;;;24.70;38.40;;;;;;5065860;28;20056;-72
2021/09/06 06:45:45;;;;;;;2.85;1.20;;;25.10;37.50;;;;;;5065374;28;20032;-71
2021/09/06 06:48:11;;;;;;;6.00;1.10;;;25.40;37.80;;;;;;5065483;28;20620;-71
2021/09/06 06:50:36;;;;;;;1.88;0.90;;;25.50;37.10;;;;;;5065674;28;20024;-71
2021/09/06 06:53:02;;;;;;;3.67;1.20;;;25.30;37.10;;;;;;5064966;28;20028;-72
2021/09/06 06:55:28;;;;;;;3.65;1.38;;;25.40;36.80;;;;;;5065241;28;20044;-72
2021/09/06 06:57:53;;;;;;;3.13;1.08;;;25.60;35.80;;;;;;5065199;28;20048;-72
2021/09/06 07:00:19;;;;;;;4.03;1.30;;;25.80;35.20;;;;;;5065285;28;20024;-72
2021/09/06 07:02:45;;;;;;;4.55;1.25;;;26.40;35.00;;;;;;5065689;28;20123;-71
2021/09/06 07:05:11;;;;;;;8.90;1.58;;;26.50;34.90;;;;;;5065154;28;20373;-71
2021/09/06 07:07:38;;;;;;;7.78;1.98;;;26.80;34.30;;;;;;5065059;28;20033;-72
2021/09/06 07:10:05;;;;;;;8.10;1.40;;;27.20;33.20;;;;;;5064877;28;20179;-70
2021/09/06 07:12:30;;;;;;;7.10;1.40;;;27.50;32.80;;;;;;5065500;28;20029;-71
2021/09/06 07:14:56;;;;;;;2.40;1.50;;;27.50;32.30;;;;;;5065329;28;20039;-72
2021/09/06 07:17:22;;;;;;;2.30;1.30;;;27.70;32.60;;;;;;5064921;28;20040;-71
2021/09/06 07:19:47;;;;;;;5.07;1.02;;;27.90;32.10;;;;;;5064789;28;20036;-71
2021/09/06 07:22:13;;;;;;;4.90;1.20;;;28.10;31.30;;;;;;5064725;28;20036;-71
2021/09/06 07:24:38;;;;;;;1.90;1.05;;;28.20;31.50;;;;;;5065123;28;20028;-72
2021/09/06 07:27:04;;;;;;;7.07;1.02;;;28.30;31.10;;;;;;5064979;28;20107;-72
2021/09/06 07:29:30;;;;;;;2.38;1.25;;;28.50;31.00;;;;;;5063884;28;20089;-71
2021/09/06 07:31:55;;;;;;;1.95;0.93;;;28.80;30.30;;;;;;5064854;28;20032;-71
2021/09/06 07:34:21;;;;;;;3.25;1.00;;;28.70;30.00;;;;;;5065371;28;20021;-70
2021/09/06 07:36:47;;;;;;;4.25;1.40;;;29.10;30.10;;;;;;5064191;28;20039;-72
2021/09/06 07:39:16;;;;;;;1.83;1.17;;;29.40;30.40;;;;;;5063807;28;20024;-73
2021/09/06 07:41:43;;;;;;;3.47;1.02;;;29.20;29.60;;;;;;5063870;28;20028;-72
2021/09/06 07:44:09;;;;;;;1.73;1.02;;;29.20;29.90;;;;;;5064371;28;20107;-72
2021/09/06 07:46:34;;;;;;;2.92;1.05;;;29.30;29.60;;;;;;5062472;28;20151;-72
2021/09/06 07:49:00;;;;;;;2.40;1.17;;;29.40;29.00;;;;;;5062794;28;20029;-71
2021/09/06 07:51:26;;;;;;;4.72;1.20;;;29.90;28.60;;;;;;5064339;28;20036;-71
2021/09/06 07:53:51;;;;;;;1.42;0.95;;;30.00;28.60;;;;;;5064731;28;20024;-73
2021/09/06 07:56:17;;;;;;;9.70;1.10;;;30.20;29.00;;;;;;5065730;28;20079;-72
2021/09/06 07:58:43;;;;;;;2.58;1.50;;;30.30;28.20;;;;;;5065769;28;20048;-72
2021/09/06 08:01:09;;;;;;;2.63;1.25;;;30.60;28.20;;;;;;5065028;28;20024;-71
2021/09/06 08:03:34;;;;;;;2.78;1.25;;;30.80;28.30;;;;;;5065911;28;20082;-72
2021/09/06 08:06:00;;;;;;;7.10;1.50;;;31.00;28.10;;;;;;5065856;28;20634;-73
2021/09/06 08:08:25;;;;;;;3.95;1.13;;;31.40;27.80;;;;;;5064882;28;20029;-72
2021/09/06 08:10:51;;;;;;;6.35;1.98;;;31.90;27.20;;;;;;5066164;28;20032;-71
2021/09/06 08:13:17;;;;;;;8.00;1.50;;;32.20;27.10;;;;;;5065594;28;20021;-72
2021/09/06 08:15:42;;;;;;;11.18;1.88;;;32.00;26.80;;;;;;5065806;28;20036;-72
2021/09/06 08:18:09;;;;;;;3.08;1.42;;;32.00;27.20;;;;;;5064008;28;20040;-70
2021/09/06 08:20:36;;;;;;;4.68;1.55;;;31.90;27.00;;;;;;5065424;28;20481;-72
2021/09/06 08:23:02;;;;;;;4.07;1.20;;;31.70;27.30;;;;;;5065301;28;20548;-71
2021/09/06 08:25:29;;;;;;;3.35;0.98;;;31.60;27.40;;;;;;5064053;28;20078;-71
2021/09/06 08:27:55;;;;;;;7.13;2.17;;;31.80;27.00;;;;;;5064997;28;20418;-72
2021/09/06 08:30:21;;;;;;;4.57;1.23;;;31.70;27.00;;;;;;5065604;28;20025;-70
2021/09/06 08:32:47;;;;;;;2.92;1.38;;;31.40;27.10;;;;;;5067457;28;20493;-71
2021/09/06 08:35:13;;;;;;;3.50;1.33;;;31.80;26.80;;;;;;5068946;28;20362;-71
2021/09/06 08:37:39;;;;;;;3.47;1.27;;;31.80;27.40;;;;;;5068106;28;20103;-72
2021/09/06 08:40:07;;;;;;;2.25;1.40;;;32.20;27.20;;;;;;5068864;28;20111;-71
2021/09/06 08:42:32;;;;;;;2.33;1.15;;;32.00;27.20;;;;;;5068703;28;20166;-72
2021/09/06 08:44:58;;;;;;;3.45;1.20;;;32.10;27.30;;;;;;5067636;28;20123;-72
2021/09/06 08:47:24;;;;;;;2.78;1.10;;;31.70;26.80;;;;;;5067032;28;20480;-72
2021/09/06 08:49:51;;;;;;;4.68;1.45;;;31.50;27.10;;;;;;5068667;28;20115;-72
2021/09/06 08:52:17;;;;;;;2.40;1.40;;;31.20;27.10;;;;;;5068198;28;20024;-71
2021/09/06 08:54:43;;;;;;;2.25;1.40;;;31.20;27.40;;;;;;5068625;28;20094;-72
2021/09/06 08:57:09;;;;;;;5.20;1.20;;;30.70;27.20;;;;;;5066882;28;20539;-71
2021/09/06 08:59:39;;;;;;;2.30;1.05;;;30.50;28.50;;;;;;5068579;28;20028;-71
2021/09/06 09:02:04;;;;;;;5.22;1.40;;;30.60;28.30;;;;;;5068691;28;20036;-72
2021/09/06 09:04:30;;;;;;;2.83;1.50;;;31.00;28.10;;;;;;5068431;28;20039;-70
2021/09/06 09:06:57;;;;;;;1.67;1.23;;;31.20;27.70;;;;;;5067980;28;20028;-71
2021/09/06 09:09:28;;;;;;;3.95;1.52;;;31.40;27.10;;;;;;5068116;28;20024;-71
2021/09/06 09:12:00;;;;;;;3.33;1.23;;;31.20;27.00;;;;;;5068611;28;20182;-71
2021/09/06 09:14:26;;;;;;;2.95;1.50;;;31.10;27.90;;;;;;5068506;28;20024;-71
2021/09/06 09:16:56;;;;;;;2.15;1.33;;;31.30;27.60;;;;;;5068236;28;20081;-70
2021/09/06 09:19:25;;;;;;;3.75;1.10;;;31.50;27.40;;;;;;5066343;28;20067;-71
2021/09/06 09:21:59;;;;;;;2.90;1.38;;;31.50;27.20;;;;;;5067787;28;20503;-70
2021/09/06 09:24:25;;;;;;;5.67;1.20;;;31.80;27.40;;;;;;5068289;28;20048;-70
2021/09/06 09:26:59;;;;;;;13.45;1.42;;;31.70;27.70;;;;;;5068085;28;20032;-71
2021/09/06 09:29:26;;;;;;;3.75;1.58;;;31.80;27.50;;;;;;5067531;28;20036;-71
2021/09/06 09:31:53;;;;;;;5.65;0.85;;;31.90;27.00;;;;;;5067760;28;20032;-70
2021/09/06 09:34:19;;;;;;;2.75;1.23;;;32.20;27.10;;;;;;5067211;28;20085;-71
2021/09/06 09:36:45;;;;;;;1.58;1.05;;;32.30;27.30;;;;;;5065908;28;20036;-70
2021/09/06 09:39:16;;;;;;;2.60;1.33;;;32.40;27.50;;;;;;5067825;28;20556;-70
2021/09/06 09:41:48;;;;;;;4.97;1.30;;;32.30;27.00;;;;;;5067687;28;20029;-70
2021/09/06 09:44:22;;;;;;;7.72;1.15;;;32.10;26.90;;;;;;5067281;28;20110;-70
2021/09/06 09:46:58;;;;;;;8.77;1.73;;;32.40;27.10;;;;;;5067531;28;20089;-70
2021/09/06 09:49:26;;;;;;;2.85;1.10;;;32.60;27.00;;;;;;5067349;28;20043;-71
2021/09/06 09:51:52;;;;;;;2.70;1.70;;;32.50;26.90;;;;;;5067265;28;20112;-71
2021/09/06 09:54:18;;;;;;;2.60;1.42;;;32.70;26.20;;;;;;5067189;28;20049;-71
2021/09/06 09:56:45;;;;;;;4.97;1.83;;;32.60;26.60;;;;;;5065704;28;20033;-69
2021/09/06 09:59:13;;;;;;;11.68;2.47;;;32.40;26.70;;;;;;5067480;28;20036;-71
2021/09/06 10:02:01;;;;;;;4.70;1.58;;;32.60;26.80;;;;;;5065690;28;20107;-70
2021/09/06 10:04:32;;;;;;;8.13;1.60;;;32.80;27.20;;;;;;5066499;28;20048;-71
2021/09/06 10:06:59;;;;;;;4.80;1.70;;;32.60;26.80;;;;;;5066854;28;20044;-71
2021/09/06 10:09:25;;;;;;;6.43;1.55;;;32.60;26.90;;;;;;5067058;28;20035;-70
2021/09/06 10:11:50;;;;;;;6.78;1.10;;;32.50;27.00;;;;;;5066811;28;20025;-71
2021/09/06 10:14:22;;;;;;;5.75;1.67;;;33.00;26.60;;;;;;5067284;28;20048;-70
2021/09/06 10:17:02;;;;;;;5.78;1.50;;;32.90;26.30;;;;;;5065525;28;20032;-71
2021/09/06 10:19:40;;;;;;;3.90;1.48;;;32.50;27.00;;;;;;5065216;28;20106;-71
2021/09/06 10:22:05;;;;;;;10.45;1.60;;;31.90;27.40;;;;;;5066494;28;20081;-68
2021/09/06 10:24:31;;;;;;;5.70;2.30;;;31.20;28.10;;;;;;5066700;28;20036;-71
2021/09/06 10:27:06;;;;;;;3.78;1.70;;;30.50;27.80;;;;;;5066357;28;20060;-71
2021/09/06 10:29:32;;;;;;;5.60;1.60;;;29.50;29.20;;;;;;5066571;28;20028;-72
2021/09/06 10:32:00;;;;;;;6.65;1.52;;;29.00;29.60;;;;;;5066742;28;20028;-72
2021/09/06 10:34:29;;;;;;;5.07;1.60;;;28.60;30.60;;;;;;5065916;28;20028;-71
2021/09/06 10:37:03;;;;;;;3.00;1.60;;;28.20;31.10;;;;;;5066179;28;20071;-72
2021/09/06 10:39:29;;;;;;;4.78;2.13;;;27.80;32.20;;;;;;5064545;28;20111;-70
2021/09/06 10:42:04;;;;;;;3.15;1.80;;;27.50;32.90;;;;;;5066162;28;20123;-71
2021/09/06 10:44:38;;;;;;;6.67;1.53;;;27.30;32.50;;;;;;5065323;28;20095;-71
2021/09/06 10:47:12;;;;;;;3.80;1.40;;;27.20;32.90;;;;;;5065605;28;20759;-72
2021/09/06 10:49:40;;;;;;;5.82;1.85;;;26.80;32.70;;;;;;5066524;28;20024;-71
2021/09/06 10:52:07;;;;;;;2.70;1.60;;;26.60;33.70;;;;;;5065577;28;20033;-70
2021/09/06 10:54:35;;;;;;;3.75;1.48;;;26.50;34.40;;;;;;5065764;28;20037;-72
2021/09/06 10:57:01;;;;;;;4.18;1.60;;;26.40;34.80;;;;;;5065948;28;20032;-72
2021/09/06 10:59:27;;;;;;;5.32;1.58;;;26.20;35.00;;;;;;5066298;28;20373;-71
2021/09/06 11:01:56;;;;;;;2.70;1.50;;;26.00;35.10;;;;;;5066341;28;20025;-72
2021/09/06 11:04:27;;;;;;;4.63;1.88;;;25.90;35.60;;;;;;5066570;28;20055;-69
2021/09/06 11:07:00;;;;;;;4.70;1.52;;;25.80;34.70;;;;;;5065910;28;20119;-68
2021/09/06 11:09:30;;;;;;;2.90;1.70;;;25.50;34.60;;;;;;5065810;28;20028;-70
2021/09/06 11:12:04;;;;;;;3.42;1.95;;;25.30;35.40;;;;;;5066524;28;20025;-72
2021/09/06 11:14:42;;;;;;;4.00;1.70;;;25.10;35.90;;;;;;5065915;28;20021;-71
2021/09/06 11:17:21;;;;;;;2.17;1.38;;;25.00;36.30;;;;;;5066024;28;20036;-72
2021/09/06 11:19:48;;;;;;;2.90;1.60;;;25.10;37.00;;;;;;5064705;28;20017;-71
2021/09/06 11:22:19;;;;;;;4.47;2.03;;;25.20;35.90;;;;;;5066253;28;20116;-70
2021/09/06 11:24:45;;;;;;;10.15;1.75;;;25.10;35.80;;;;;;5065991;28;20021;-73
2021/09/06 11:27:32;;;;;;;5.60;1.40;;;25.10;35.80;;;;;;5065734;28;20028;-70
2021/09/06 11:29:59;;;;;;;3.30;1.50;;;24.90;35.80;;;;;;5064119;28;20405;-71
2021/09/06 11:32:25;;;;;;;4.28;1.95;;;24.70;36.90;;;;;;5065511;28;20655;-70
2021/09/06 11:35:05;;;;;;;3.30;1.30;;;24.60;37.10;;;;;;5065654;28;20086;-71
2021/09/06 11:37:31;;;;;;;7.32;2.08;;;24.60;36.90;;;;;;5065889;28;20036;-71
2021/09/06 11:39:57;;;;;;;3.03;1.65;;;24.50;37.10;;;;;;5064762;28;20123;-72
2021/09/06 11:42:25;;;;;;;2.70;1.95;;;24.60;37.40;;;;;;5065912;28;20207;-71
2021/09/06 11:44:51;;;;;;;3.75;2.28;;;24.70;37.20;;;;;;5065559;28;20766;-71
2021/09/06 11:47:17;;;;;;;7.40;2.30;;;24.80;36.90;;;;;;5065799;28;20028;-72
2021/09/06 11:49:57;;;;;;;6.45;2.33;;;24.70;36.80;;;;;;5064395;28;20028;-72
2021/09/06 11:52:33;;;;;;;3.28;1.95;;;24.50;36.80;;;;;;5066248;28;20398;-71
2021/09/06 11:54:59;;;;;;;3.45;1.95;;;24.40;38.10;;;;;;5064379;28;20457;-71
2021/09/06 11:57:27;;;;;;;4.68;2.20;;;24.40;37.80;;;;;;5065607;28;20098;-72
2021/09/06 11:59:56;;;;;;;3.50;2.17;;;24.40;37.30;;;;;;5064527;28;20032;-71
2021/09/06 12:02:26;;;;;;;3.08;2.00;;;24.50;37.50;;;;;;5065793;28;20048;-72
2021/09/06 12:05:03;;;;;;;3.40;2.50;;;24.70;37.70;;;;;;5065606;28;20752;-72
2021/09/06 12:07:29;;;;;;;5.25;2.80;;;24.90;36.50;;;;;;5068905;28;20460;-71
2021/09/06 12:09:54;;;;;;;4.63;2.65;;;25.00;35.10;;;;;;5069318;28;20136;-71
2021/09/06 12:12:25;;;;;;;4.15;2.40;;;24.90;35.40;;;;;;5069670;28;20032;-71
2021/09/06 12:14:53;;;;;;;3.10;1.92;;;24.90;36.40;;;;;;5069636;28;20032;-71
2021/09/06 12:17:20;;;;;;;3.97;1.90;;;25.00;37.30;;;;;;5068827;28;20568;-71
2021/09/06 12:19:48;;;;;;;4.85;2.28;;;25.10;36.20;;;;;;5068508;28;20025;-71
2021/09/06 12:22:19;;;;;;;4.38;2.38;;;24.90;36.00;;;;;;5069489;28;20481;-71
2021/09/06 12:24:46;;;;;;;4.97;2.47;;;24.90;36.90;;;;;;5069053;28;20077;-70
2021/09/06 12:27:14;;;;;;;3.53;2.63;;;25.00;36.90;;;;;;5068890;28;20025;-71
2021/09/06 12:29:41;;;;;;;3.60;2.58;;;25.10;36.40;;;;;;5068793;28;20024;-70
2021/09/06 12:32:08;;;;;;;4.60;2.40;;;25.30;36.30;;;;;;5069201;28;20020;-70
2021/09/06 12:34:35;;;;;;;4.72;2.85;;;25.40;36.70;;;;;;5067866;28;20693;-70
2021/09/06 12:37:03;;;;;;;7.78;2.70;;;25.50;36.50;;;;;;5067277;28;20487;-70
2021/09/06 12:39:30;;;;;;;4.80;3.40;;;25.60;36.50;;;;;;5069010;28;20404;-70
2021/09/06 12:41:55;;;;;;;5.15;3.80;;;25.60;33.60;;;;;;5069210;28;20665;-70
2021/09/06 12:44:21;;;;;;;5.18;3.75;;;25.50;32.10;;;;;;5068871;28;20104;-69
2021/09/06 12:46:47;;;;;;;10.70;3.42;;;25.30;33.10;;;;;;5069112;28;20485;-70
2021/09/06 12:49:13;;;;;;;6.63;3.88;;;25.30;34.30;;;;;;5068302;28;20374;-70
2021/09/06 12:51:38;;;;;;;5.63;3.83;;;25.40;34.30;;;;;;5068035;28;20115;-69
2021/09/06 12:54:04;;;;;;;5.18;3.72;;;25.50;34.50;;;;;;5068237;28;20029;-70
2021/09/06 12:56:32;;;;;;;9.98;3.92;;;25.50;35.50;;;;;;5068613;28;20028;-71
2021/09/06 12:58:58;;;;;;;5.10;3.50;;;25.60;35.00;;;;;;5067334;28;20412;-70